Time;durP1;ratioP1;P1;durP2;ratioP2;P2;SDS_P1;SDS_P2;PMS_P1;PMS_P2;Temp;Humidity;BMP_temperature;BMP_pressure;BME280_temperature;BME280_humidity;BME280_pressure;Samples;Min_cycle;Max_cycle;Signal;HPM_P1;HPM_P2
2021/10/24 00:01:21;;;;;;;6.83;4.53;;;9.30;99.90;;;;;;5053124;28;20603;-78
2021/10/24 00:03:47;;;;;;;9.98;4.80;;;9.20;99.90;;;;;;5035946;28;20612;-78
2021/10/24 00:06:14;;;;;;;5.63;4.33;;;9.20;99.90;;;;;;5053275;28;20292;-78
2021/10/24 00:08:40;;;;;;;4.28;3.88;;;9.20;99.90;;;;;;5036365;28;20669;-78
2021/10/24 00:11:06;;;;;;;8.07;5.00;;;9.20;99.90;;;;;;5019658;28;20201;-78
2021/10/24 00:13:32;;;;;;;5.97;4.63;;;9.20;99.90;;;;;;5052797;28;20559;-77
2021/10/24 00:15:59;;;;;;;6.75;5.55;;;9.10;99.90;;;;;;5043867;28;20173;-78
2021/10/24 00:18:26;;;;;;;5.43;4.90;;;9.10;99.90;;;;;;5053149;28;20553;-77
2021/10/24 00:20:53;;;;;;;6.82;4.60;;;9.10;99.90;;;;;;5052716;28;20169;-77
2021/10/24 00:23:20;;;;;;;6.65;4.60;;;9.10;99.90;;;;;;5053773;28;20177;-77
2021/10/24 00:25:46;;;;;;;7.38;5.63;;;9.10;99.90;;;;;;5052367;28;20173;-77
2021/10/24 00:28:12;;;;;;;5.63;4.43;;;9.00;99.90;;;;;;5036193;28;20192;-77
2021/10/24 00:30:38;;;;;;;4.78;4.38;;;9.00;99.90;;;;;;5035805;28;20207;-77
2021/10/24 00:33:05;;;;;;;6.90;4.00;;;9.00;99.90;;;;;;5052572;28;20172;-77
2021/10/24 00:35:31;;;;;;;6.50;4.90;;;9.00;99.90;;;;;;5052552;28;20974;-77
2021/10/24 00:37:57;;;;;;;10.05;5.50;;;9.00;99.90;;;;;;5053484;28;20169;-77
2021/10/24 00:40:23;;;;;;;6.65;4.25;;;8.90;99.90;;;;;;5052560;28;20177;-77
2021/10/24 00:42:51;;;;;;;8.10;4.80;;;8.90;99.90;;;;;;5035314;28;20176;-77
2021/10/24 00:45:18;;;;;;;9.90;5.75;;;8.90;99.90;;;;;;5035762;28;20173;-77
2021/10/24 00:47:44;;;;;;;7.22;5.20;;;8.90;99.90;;;;;;5035751;28;20169;-77
2021/10/24 00:50:11;;;;;;;8.45;5.40;;;8.80;99.90;;;;;;5052227;28;20228;-77
2021/10/24 00:52:37;;;;;;;6.68;4.78;;;8.80;99.90;;;;;;5057530;28;20177;-78
2021/10/24 00:55:03;;;;;;;5.43;4.80;;;8.80;99.90;;;;;;5052818;28;20230;-77
2021/10/24 00:57:29;;;;;;;8.10;5.70;;;8.80;99.90;;;;;;5052061;28;20161;-77
2021/10/24 00:59:56;;;;;;;6.00;4.60;;;8.80;99.90;;;;;;5052160;28;20279;-77
2021/10/24 01:02:21;;;;;;;5.80;5.15;;;8.80;99.90;;;;;;5035282;28;20165;-77
2021/10/24 01:04:47;;;;;;;5.43;4.93;;;8.80;99.90;;;;;;5051085;28;20179;-77
2021/10/24 01:07:17;;;;;;;6.70;4.57;;;8.80;99.90;;;;;;5053326;28;20556;-77
2021/10/24 01:09:44;;;;;;;5.32;4.32;;;8.70;99.90;;;;;;5034888;28;20199;-77
2021/10/24 01:12:10;;;;;;;6.03;4.38;;;8.70;99.90;;;;;;5018862;28;20283;-77
2021/10/24 01:14:36;;;;;;;8.53;5.87;;;8.70;99.90;;;;;;5051427;28;20645;-78
2021/10/24 01:17:02;;;;;;;6.97;4.80;;;8.70;99.90;;;;;;5052179;28;20161;-78
2021/10/24 01:19:28;;;;;;;6.50;5.70;;;8.60;99.90;;;;;;5051526;28;20599;-77
2021/10/24 01:21:56;;;;;;;5.15;4.43;;;8.60;99.90;;;;;;5051904;28;20173;-77
2021/10/24 01:24:22;;;;;;;10.83;5.47;;;8.60;99.90;;;;;;5051213;28;20186;-77
2021/10/24 01:26:49;;;;;;;5.75;5.15;;;8.60;99.90;;;;;;5050958;28;20599;-77
2021/10/24 01:29:15;;;;;;;7.03;6.07;;;8.60;99.90;;;;;;5047288;28;20204;-78
2021/10/24 01:31:42;;;;;;;6.00;5.28;;;8.60;99.90;;;;;;5033433;28;20205;-77
2021/10/24 01:34:08;;;;;;;8.10;5.80;;;8.50;99.90;;;;;;5014940;28;20165;-77
2021/10/24 01:36:35;;;;;;;7.50;6.72;;;8.50;99.90;;;;;;5047829;28;20562;-77
2021/10/24 01:39:03;;;;;;;9.13;6.70;;;8.50;99.90;;;;;;4998874;28;20217;-77
2021/10/24 01:41:29;;;;;;;6.40;5.80;;;8.50;99.90;;;;;;5014577;28;20232;-77
2021/10/24 01:43:58;;;;;;;5.80;5.00;;;8.40;99.90;;;;;;5031261;28;20180;-77
2021/10/24 01:46:24;;;;;;;5.93;5.32;;;8.50;99.90;;;;;;5031164;28;20178;-77
2021/10/24 01:48:50;;;;;;;7.35;5.93;;;8.40;99.90;;;;;;5031562;28;20194;-77
2021/10/24 01:51:17;;;;;;;8.03;5.80;;;8.40;99.90;;;;;;5031050;28;20560;-77
2021/10/24 01:53:45;;;;;;;6.38;5.72;;;8.40;99.90;;;;;;5030854;28;20170;-77
2021/10/24 01:56:11;;;;;;;5.97;5.15;;;8.40;99.90;;;;;;5031293;28;20581;-77
2021/10/24 01:58:40;;;;;;;4.70;4.10;;;8.30;99.90;;;;;;5014264;28;20673;-79
2021/10/24 02:01:09;;;;;;;10.00;6.03;;;8.30;99.90;;;;;;5047502;28;20228;-78
2021/10/24 02:04:04;;;;;;;6.63;5.93;;;8.30;99.90;;;;;;5026218;28;20994;-77
2021/10/24 02:06:39;;;;;;;6.47;5.60;;;8.30;99.90;;;;;;5037102;28;20216;-76
2021/10/24 02:09:07;;;;;;;6.32;5.72;;;8.30;99.90;;;;;;4998319;28;20687;-77
2021/10/24 02:11:33;;;;;;;6.67;5.87;;;8.20;99.90;;;;;;5014510;28;20272;-78
2021/10/24 02:13:58;;;;;;;8.53;7.10;;;8.20;99.90;;;;;;5030350;28;20571;-78
2021/10/24 02:16:25;;;;;;;6.85;5.30;;;8.20;99.90;;;;;;5013568;28;20589;-78
2021/10/24 02:18:51;;;;;;;5.88;5.28;;;8.20;99.90;;;;;;4997586;28;20326;-78
2021/10/24 02:21:18;;;;;;;7.45;6.10;;;8.20;99.90;;;;;;5047247;28;20177;-78
2021/10/24 02:23:44;;;;;;;7.32;5.72;;;8.20;99.90;;;;;;5013581;28;20254;-78
2021/10/24 02:26:13;;;;;;;6.22;4.60;;;8.20;99.90;;;;;;5014236;28;20178;-79
2021/10/24 02:28:40;;;;;;;6.65;6.05;;;8.20;99.90;;;;;;5046740;28;20560;-78
2021/10/24 02:31:05;;;;;;;8.18;5.28;;;8.10;99.90;;;;;;5016664;28;20291;-77
2021/10/24 02:33:49;;;;;;;6.03;4.25;;;8.10;99.90;;;;;;5051716;28;20192;-78
2021/10/24 02:36:21;;;;;;;6.95;5.75;;;8.10;99.90;;;;;;5050776;28;20264;-77
2021/10/24 02:38:54;;;;;;;6.32;4.60;;;8.10;99.90;;;;;;5050309;28;20208;-78
2021/10/24 02:41:20;;;;;;;7.03;5.50;;;8.10;99.90;;;;;;5034145;28;20176;-77
2021/10/24 02:43:46;;;;;;;5.50;4.80;;;8.10;99.90;;;;;;5053868;28;20584;-78
2021/10/24 02:46:13;;;;;;;6.28;5.65;;;8.00;99.90;;;;;;5050146;28;20581;-77
2021/10/24 02:48:39;;;;;;;6.75;5.10;;;8.10;99.90;;;;;;5033416;28;20276;-77
2021/10/24 02:51:05;;;;;;;6.70;5.05;;;8.00;99.90;;;;;;5050140;28;20277;-78
2021/10/24 02:53:31;;;;;;;8.57;6.70;;;8.00;99.90;;;;;;5050000;28;20165;-78
2021/10/24 02:56:02;;;;;;;9.80;6.72;;;8.00;99.90;;;;;;5049885;28;20555;-78
2021/10/24 02:58:29;;;;;;;6.55;5.35;;;7.90;99.90;;;;;;5051390;28;20246;-78
2021/10/24 03:00:58;;;;;;;7.87;6.00;;;7.90;99.90;;;;;;5050082;28;20181;-78
2021/10/24 03:03:25;;;;;;;7.85;5.38;;;7.90;99.90;;;;;;5049848;28;20268;-78
2021/10/24 03:05:51;;;;;;;9.27;6.47;;;7.90;99.90;;;;;;5051289;28;20252;-78
2021/10/24 03:08:16;;;;;;;6.47;5.53;;;7.80;99.90;;;;;;5050009;28;20189;-78
2021/10/24 03:10:43;;;;;;;5.78;4.68;;;7.80;99.90;;;;;;5049973;28;20629;-78
2021/10/24 03:13:12;;;;;;;8.00;5.60;;;7.80;99.90;;;;;;5050885;28;20191;-78
2021/10/24 03:15:37;;;;;;;8.10;6.05;;;7.80;99.90;;;;;;5051339;28;20563;-78
2021/10/24 03:18:03;;;;;;;5.57;4.37;;;7.80;99.90;;;;;;5050261;28;20173;-78
2021/10/24 03:20:31;;;;;;;11.10;6.72;;;7.80;99.90;;;;;;5052465;28;20572;-78
2021/10/24 03:22:57;;;;;;;5.50;4.57;;;7.80;99.90;;;;;;5050510;28;20668;-78
2021/10/24 03:25:23;;;;;;;7.27;5.47;;;7.80;99.90;;;;;;5050032;28;20245;-78
2021/10/24 03:27:49;;;;;;;7.03;5.30;;;7.80;99.90;;;;;;5052225;28;20645;-78
2021/10/24 03:30:17;;;;;;;6.13;5.10;;;7.80;99.90;;;;;;5037112;28;20208;-78
2021/10/24 03:32:43;;;;;;;19.40;5.82;;;7.80;99.90;;;;;;5036845;28;20165;-78
2021/10/24 03:35:09;;;;;;;8.00;5.15;;;7.70;99.90;;;;;;5053609;28;20232;-78
2021/10/24 03:37:35;;;;;;;7.63;4.00;;;7.70;99.90;;;;;;5055245;28;20185;-78
2021/10/24 03:40:01;;;;;;;7.80;5.07;;;7.70;99.90;;;;;;5036528;28;20702;-78
2021/10/24 03:42:28;;;;;;;7.45;5.53;;;7.70;99.90;;;;;;5054492;28;20578;-78
2021/10/24 03:44:53;;;;;;;5.67;5.07;;;7.70;99.90;;;;;;5036765;28;20177;-78
2021/10/24 03:47:20;;;;;;;5.60;4.67;;;7.70;99.90;;;;;;5053649;28;20921;-78
2021/10/24 03:49:46;;;;;;;6.40;5.22;;;7.60;99.90;;;;;;5053393;28;20677;-78
2021/10/24 03:52:11;;;;;;;6.87;5.57;;;7.60;99.90;;;;;;5053474;28;20859;-77
2021/10/24 03:54:37;;;;;;;7.73;5.93;;;7.70;99.90;;;;;;5053293;28;21082;-77
2021/10/24 03:57:04;;;;;;;6.95;5.90;;;7.60;99.90;;;;;;5054996;28;20335;-77
2021/10/24 03:59:29;;;;;;;10.07;6.53;;;7.60;99.90;;;;;;5060975;28;20235;-77
2021/10/24 04:01:55;;;;;;;10.10;7.00;;;7.60;99.90;;;;;;5053010;28;20957;-77
2021/10/24 04:04:23;;;;;;;6.55;5.80;;;7.50;99.90;;;;;;5036297;28;20584;-77
2021/10/24 04:06:48;;;;;;;7.57;6.77;;;7.50;99.90;;;;;;5052941;28;20552;-77
2021/10/24 04:09:15;;;;;;;8.25;7.35;;;7.50;99.90;;;;;;5053194;28;20193;-77
2021/10/24 04:11:41;;;;;;;8.87;7.23;;;7.50;99.90;;;;;;5052912;28;20203;-77
2021/10/24 04:14:06;;;;;;;8.10;7.30;;;7.40;99.90;;;;;;5052847;28;20227;-77
2021/10/24 04:16:34;;;;;;;7.53;5.97;;;7.40;99.90;;;;;;5036127;28;20176;-77
2021/10/24 04:19:06;;;;;;;10.70;7.40;;;7.40;99.90;;;;;;5054399;28;20315;-77
2021/10/24 04:21:39;;;;;;;4.97;4.45;;;7.40;99.90;;;;;;5026265;28;20259;-77
2021/10/24 04:24:05;;;;;;;8.47;6.50;;;7.40;99.90;;;;;;5038959;28;20178;-78
2021/10/24 04:26:32;;;;;;;9.07;5.57;;;7.40;99.90;;;;;;5032678;28;20173;-77
2021/10/24 04:28:58;;;;;;;6.78;5.57;;;7.40;99.90;;;;;;5044896;28;20205;-78
2021/10/24 04:31:24;;;;;;;6.33;4.93;;;7.40;99.90;;;;;;5034260;28;20204;-78
2021/10/24 04:33:49;;;;;;;6.75;6.07;;;7.40;99.90;;;;;;5045036;28;20615;-77
2021/10/24 04:36:15;;;;;;;7.63;6.17;;;7.40;99.90;;;;;;5045143;28;20356;-77
2021/10/24 04:38:44;;;;;;;8.70;5.60;;;7.40;99.90;;;;;;5032120;28;20709;-77
2021/10/24 04:41:10;;;;;;;7.53;6.10;;;7.40;99.90;;;;;;5032568;28;20181;-77
2021/10/24 04:43:36;;;;;;;8.88;5.63;;;7.40;99.90;;;;;;5032191;28;20224;-77
2021/10/24 04:46:02;;;;;;;7.37;5.27;;;7.30;99.90;;;;;;5049231;28;20201;-77
2021/10/24 04:48:28;;;;;;;11.90;7.23;;;7.30;99.90;;;;;;5015866;28;20584;-77
2021/10/24 04:50:54;;;;;;;9.98;7.32;;;7.30;99.90;;;;;;5032501;28;20616;-77
2021/10/24 04:53:21;;;;;;;12.17;7.80;;;7.30;99.90;;;;;;5031800;28;20559;-77
2021/10/24 04:55:48;;;;;;;9.75;7.22;;;7.30;99.90;;;;;;5049361;28;20183;-78
2021/10/24 04:58:13;;;;;;;9.50;6.37;;;7.20;99.90;;;;;;5048958;28;20292;-77
2021/10/24 05:00:39;;;;;;;8.47;5.87;;;7.30;99.90;;;;;;5032188;28;20165;-77
2021/10/24 05:03:05;;;;;;;8.33;6.37;;;7.30;99.90;;;;;;5031998;28;20169;-77
2021/10/24 05:05:31;;;;;;;9.60;6.50;;;7.30;99.90;;;;;;5048620;28;20569;-77
2021/10/24 05:07:57;;;;;;;11.27;7.80;;;7.30;99.90;;;;;;5015419;28;20184;-77
2021/10/24 05:10:23;;;;;;;7.53;6.07;;;7.30;99.90;;;;;;5032153;28;20202;-77
2021/10/24 05:12:49;;;;;;;8.60;6.37;;;7.20;99.90;;;;;;5053671;28;20676;-77
2021/10/24 05:15:15;;;;;;;9.32;6.68;;;7.20;99.90;;;;;;5032005;28;20269;-77
2021/10/24 05:17:41;;;;;;;7.25;6.05;;;7.20;99.90;;;;;;5048678;28;20205;-77
2021/10/24 05:20:09;;;;;;;7.80;6.45;;;7.20;99.90;;;;;;5048322;28;20189;-77
2021/10/24 05:22:35;;;;;;;10.10;5.80;;;7.20;99.90;;;;;;5048210;28;20246;-77
2021/10/24 05:25:02;;;;;;;8.80;4.97;;;7.20;99.90;;;;;;5048195;28;20204;-77
2021/10/24 05:27:28;;;;;;;7.13;5.03;;;7.30;99.90;;;;;;5031674;28;20604;-77
2021/10/24 05:29:54;;;;;;;6.95;5.18;;;7.20;99.90;;;;;;5015067;28;20189;-77
2021/10/24 05:32:20;;;;;;;6.00;5.50;;;7.30;99.90;;;;;;5014619;28;20263;-77
2021/10/24 05:34:46;;;;;;;7.03;6.32;;;7.30;99.90;;;;;;5048345;28;20188;-77
2021/10/24 05:37:17;;;;;;;7.30;5.85;;;7.20;99.90;;;;;;5031441;28;20158;-78
2021/10/24 05:39:43;;;;;;;7.70;5.93;;;7.30;99.90;;;;;;5057467;22;20221;-76
2021/10/24 05:42:29;;;;;;;8.75;5.68;;;7.20;99.90;;;;;;5034372;28;20678;-76
2021/10/24 05:44:55;;;;;;;7.63;6.80;;;7.30;99.90;;;;;;5044729;28;20169;-76
2021/10/24 05:47:21;;;;;;;10.07;5.75;;;7.30;99.90;;;;;;5034324;28;20268;-75
2021/10/24 05:49:49;;;;;;;7.20;6.03;;;7.30;99.90;;;;;;5033722;28;20627;-76
2021/10/24 05:52:22;;;;;;;9.93;7.57;;;7.30;99.90;;;;;;5025287;28;20597;-76
2021/10/24 05:54:48;;;;;;;8.07;6.68;;;7.20;99.90;;;;;;5015824;28;20514;-76
2021/10/24 05:57:18;;;;;;;9.65;7.57;;;7.20;99.90;;;;;;5019850;28;20170;-76
2021/10/24 06:00:16;;;;;;;7.20;5.65;;;7.20;99.90;;;;;;5022162;28;20194;-76
2021/10/24 06:02:45;;;;;;;9.25;7.13;;;7.20;99.90;;;;;;5026184;28;20586;-76
2021/10/24 06:05:30;;;;;;;7.60;5.47;;;7.20;99.90;;;;;;5015650;28;20178;-76
2021/10/24 06:07:55;;;;;;;8.45;6.70;;;7.30;99.90;;;;;;5012366;28;20178;-76
2021/10/24 06:10:28;;;;;;;6.25;5.63;;;7.20;99.90;;;;;;5011141;28;20288;-76
2021/10/24 06:12:54;;;;;;;8.73;7.30;;;7.20;99.90;;;;;;5012881;28;20221;-76
2021/10/24 06:15:21;;;;;;;7.10;6.40;;;7.20;99.90;;;;;;5011383;28;20650;-75
2021/10/24 06:17:49;;;;;;;6.22;5.63;;;7.20;99.90;;;;;;5011280;28;20582;-75
2021/10/24 06:20:16;;;;;;;7.55;6.82;;;7.20;99.90;;;;;;5012518;28;20201;-75
2021/10/24 06:22:43;;;;;;;7.45;5.82;;;7.20;99.90;;;;;;5011607;28;20613;-77
2021/10/24 06:25:12;;;;;;;5.82;5.15;;;7.10;99.90;;;;;;5011704;28;20171;-76
2021/10/24 06:27:40;;;;;;;7.55;5.50;;;7.20;99.90;;;;;;4995192;28;20182;-75
2021/10/24 06:30:09;;;;;;;9.80;5.85;;;7.10;99.90;;;;;;5010620;28;20198;-75
2021/10/24 06:32:53;;;;;;;7.47;4.53;;;7.10;99.90;;;;;;5012429;28;20257;-76
2021/10/24 06:35:39;;;;;;;6.28;5.45;;;7.10;99.90;;;;;;5012510;28;20174;-76
2021/10/24 06:38:25;;;;;;;6.80;6.07;;;7.10;99.90;;;;;;5012580;28;20192;-76
2021/10/24 06:40:57;;;;;;;7.95;6.10;;;7.10;99.90;;;;;;5015498;28;20289;-75
2021/10/24 06:43:24;;;;;;;8.70;6.38;;;7.10;99.90;;;;;;5012026;28;20608;-76
2021/10/24 06:46:09;;;;;;;6.25;5.55;;;7.10;99.90;;;;;;5012344;28;20178;-75
2021/10/24 06:48:53;;;;;;;8.27;5.40;;;7.10;99.90;;;;;;5011419;28;20304;-75
2021/10/24 06:51:21;;;;;;;5.35;4.85;;;7.10;99.90;;;;;;4994853;28;20202;-75
2021/10/24 06:53:53;;;;;;;5.93;5.30;;;7.10;99.90;;;;;;5011564;28;20261;-76
2021/10/24 06:56:37;;;;;;;6.40;4.72;;;7.10;99.90;;;;;;5012509;28;20633;-75
2021/10/24 06:59:26;;;;;;;6.70;5.00;;;7.10;99.90;;;;;;4987982;28;20229;-75
2021/10/24 07:02:11;;;;;;;7.65;5.80;;;7.10;99.90;;;;;;5013206;28;20227;-75
2021/10/24 07:04:55;;;;;;;6.80;6.05;;;7.20;99.90;;;;;;5002135;28;20232;-75
2021/10/24 07:07:27;;;;;;;6.25;5.65;;;7.20;99.90;;;;;;5015493;28;20176;-75
2021/10/24 07:09:56;;;;;;;9.60;6.95;;;7.20;99.90;;;;;;5015227;28;20540;-75
2021/10/24 07:12:22;;;;;;;7.65;6.80;;;7.20;99.90;;;;;;5015002;28;20219;-75
2021/10/24 07:14:48;;;;;;;9.83;6.67;;;7.20;99.90;;;;;;5015350;28;20166;-75
2021/10/24 07:17:14;;;;;;;7.03;6.33;;;7.20;99.90;;;;;;5016471;28;20661;-75
2021/10/24 07:19:40;;;;;;;6.17;5.37;;;7.20;99.90;;;;;;5001932;28;20182;-75
2021/10/24 07:22:13;;;;;;;7.50;6.03;;;7.20;99.90;;;;;;5014692;28;20597;-75
2021/10/24 07:25:12;;;;;;;6.50;5.32;;;7.30;99.90;;;;;;4982665;28;20193;-75
2021/10/24 07:27:42;;;;;;;6.10;5.10;;;7.40;99.90;;;;;;5014890;28;20756;-75
2021/10/24 07:30:10;;;;;;;6.90;4.90;;;7.50;99.90;;;;;;5029531;28;20194;-74
2021/10/24 07:33:11;;;;;;;9.07;5.65;;;7.50;99.90;;;;;;5023138;28;20208;-75
2021/10/24 07:35:56;;;;;;;6.95;4.97;;;7.70;99.90;;;;;;5034967;28;20161;-75
2021/10/24 07:38:22;;;;;;;7.38;4.25;;;7.80;99.90;;;;;;5017662;28;20502;-74
2021/10/24 07:40:49;;;;;;;7.32;4.65;;;7.80;99.90;;;;;;5034756;28;20177;-75
2021/10/24 07:43:22;;;;;;;6.63;5.25;;;7.90;99.90;;;;;;5018182;28;20176;-75
2021/10/24 07:45:51;;;;;;;8.75;5.00;;;8.00;99.90;;;;;;5017602;28;20174;-75
2021/10/24 07:48:22;;;;;;;5.03;3.45;;;8.10;99.90;;;;;;5017855;28;20176;-75
2021/10/24 07:50:49;;;;;;;3.92;3.55;;;8.20;99.90;;;;;;5034734;28;20201;-76
2021/10/24 07:53:26;;;;;;;4.53;3.70;;;8.30;99.90;;;;;;5001959;28;20181;-76
2021/10/24 07:55:57;;;;;;;6.05;4.70;;;8.40;99.90;;;;;;5021764;28;20165;-76
2021/10/24 07:58:56;;;;;;;4.43;3.75;;;8.50;99.90;;;;;;5023659;28;20549;-76
2021/10/24 08:01:22;;;;;;;7.30;4.45;;;8.60;99.90;;;;;;5034108;28;20170;-75
2021/10/24 08:03:49;;;;;;;5.97;4.57;;;8.70;99.90;;;;;;5033416;28;20220;-75
2021/10/24 08:06:24;;;;;;;7.07;4.55;;;8.80;99.90;;;;;;5033952;28;20180;-76
2021/10/24 08:08:52;;;;;;;6.38;4.00;;;8.90;99.90;;;;;;5033792;28;20240;-75
2021/10/24 08:11:18;;;;;;;5.68;4.35;;;9.00;99.90;;;;;;5033810;28;20221;-76
2021/10/24 08:13:45;;;;;;;5.15;4.03;;;9.00;99.90;;;;;;5016860;28;20166;-76
2021/10/24 08:16:12;;;;;;;5.38;3.70;;;9.10;99.90;;;;;;5033473;28;20508;-76
2021/10/24 08:18:38;;;;;;;5.25;3.58;;;9.30;99.90;;;;;;5033702;28;20180;-75
2021/10/24 08:21:31;;;;;;;4.40;3.85;;;9.30;99.90;;;;;;5031612;28;20209;-75
2021/10/24 08:23:58;;;;;;;5.53;3.67;;;9.50;99.90;;;;;;5033389;28;20174;-75
2021/10/24 08:26:25;;;;;;;5.10;3.70;;;9.90;99.90;;;;;;5033018;28;20173;-75
2021/10/24 08:28:51;;;;;;;4.47;3.95;;;10.50;99.90;;;;;;5016910;28;20197;-75
2021/10/24 08:31:55;;;;;;;5.95;3.83;;;11.20;99.90;;;;;;5038425;28;20235;-75
2021/10/24 08:34:22;;;;;;;3.57;2.77;;;12.20;99.90;;;;;;5000235;28;20180;-75
2021/10/24 08:36:48;;;;;;;3.83;2.80;;;13.00;99.90;;;;;;5016778;28;20572;-77
2021/10/24 08:39:15;;;;;;;3.73;2.90;;;13.70;99.90;;;;;;5000007;28;20712;-77
2021/10/24 08:41:41;;;;;;;2.50;2.20;;;14.70;99.90;;;;;;5034306;28;20684;-77
2021/10/24 08:44:07;;;;;;;3.70;2.80;;;15.60;99.90;;;;;;5033192;28;20667;-78
2021/10/24 08:46:33;;;;;;;3.40;2.13;;;16.40;99.90;;;;;;5034252;28;20577;-78
2021/10/24 08:49:00;;;;;;;5.13;2.17;;;16.90;99.90;;;;;;5032948;28;20658;-78
2021/10/24 08:51:27;;;;;;;4.50;2.07;;;17.40;99.90;;;;;;5034062;28;20665;-78
2021/10/24 08:53:53;;;;;;;2.63;2.43;;;17.70;99.90;;;;;;5034063;28;20567;-79
2021/10/24 08:56:25;;;;;;;2.27;1.77;;;17.80;99.90;;;;;;5032358;28;20935;-78
2021/10/24 08:58:51;;;;;;;4.07;2.13;;;17.80;99.90;;;;;;5016475;28;20613;-78
2021/10/24 09:01:18;;;;;;;2.73;2.27;;;17.90;99.90;;;;;;5032989;28;20662;-78
2021/10/24 09:04:04;;;;;;;2.57;1.67;;;18.00;99.90;;;;;;5034096;28;21167;-78
2021/10/24 09:07:02;;;;;;;3.20;2.20;;;18.20;96.10;;;;;;5034042;28;20568;-78
2021/10/24 09:09:32;;;;;;;3.17;1.43;;;18.40;99.90;;;;;;5017633;28;20630;-79
2021/10/24 09:12:02;;;;;;;3.63;1.83;;;18.60;99.90;;;;;;5032656;28;21167;-79
2021/10/24 09:14:43;;;;;;;6.40;1.83;;;18.80;97.40;;;;;;5032305;28;20622;-78
2021/10/24 09:17:30;;;;;;;6.40;2.03;;;19.00;99.90;;;;;;5032863;28;20571;-78
2021/10/24 09:20:00;;;;;;;2.60;1.83;;;19.30;94.70;;;;;;5033991;28;20599;-79
2021/10/24 09:22:34;;;;;;;3.13;1.60;;;19.60;99.90;;;;;;5033733;28;20569;-78
2021/10/24 09:25:14;;;;;;;3.00;2.10;;;19.90;99.90;;;;;;5032073;28;20678;-77
2021/10/24 09:28:00;;;;;;;3.47;1.97;;;20.20;99.90;;;;;;5034412;28;20645;-79
2021/10/24 09:30:31;;;;;;;3.80;2.23;;;20.40;97.30;;;;;;5018974;28;20632;-78
2021/10/24 09:33:09;;;;;;;3.77;1.80;;;20.50;97.10;;;;;;5032149;28;20933;-77
2021/10/24 09:35:41;;;;;;;5.80;1.70;;;20.70;97.50;;;;;;5033730;28;20575;-78
2021/10/24 09:38:26;;;;;;;3.50;1.57;;;20.70;95.70;;;;;;5023838;28;20599;-78
2021/10/24 09:41:01;;;;;;;2.43;1.70;;;20.80;97.00;;;;;;5017203;28;21108;-78
2021/10/24 09:43:31;;;;;;;3.50;1.70;;;21.10;97.30;;;;;;5030427;28;20962;-78
2021/10/24 09:45:57;;;;;;;2.13;1.37;;;21.20;94.00;;;;;;5036717;28;20556;-78
2021/10/24 09:48:27;;;;;;;1.70;1.10;;;21.30;94.90;;;;;;5033038;28;20603;-77
2021/10/24 09:50:56;;;;;;;2.03;1.47;;;21.40;95.00;;;;;;5034432;28;20216;-78
2021/10/24 09:53:27;;;;;;;1.57;1.20;;;21.60;95.80;;;;;;5025006;28;20581;-79
2021/10/24 09:55:53;;;;;;;1.70;1.20;;;21.80;94.00;;;;;;5030838;28;20596;-77
2021/10/24 09:58:20;;;;;;;3.50;1.67;;;22.00;93.50;;;;;;5013449;28;20593;-77
2021/10/24 10:00:46;;;;;;;3.23;1.77;;;21.70;89.70;;;;;;5021319;28;20604;-78
2021/10/24 10:03:21;;;;;;;4.87;2.17;;;21.70;90.90;;;;;;5023218;28;20580;-78
2021/10/24 10:05:47;;;;;;;2.47;1.80;;;21.50;82.20;;;;;;5033197;28;21142;-77
2021/10/24 10:08:17;;;;;;;2.47;1.80;;;21.10;84.10;;;;;;5033993;28;20592;-78
2021/10/24 10:11:06;;;;;;;4.47;2.27;;;20.40;78.90;;;;;;5032173;28;20656;-78
2021/10/24 10:13:45;;;;;;;3.17;1.20;;;20.00;74.10;;;;;;5012827;28;20605;-78
2021/10/24 10:16:13;;;;;;;5.53;1.90;;;20.00;85.70;;;;;;5012587;28;20553;-78
2021/10/24 10:18:57;;;;;;;2.37;1.50;;;19.90;86.50;;;;;;5027164;28;20596;-77
2021/10/24 10:21:43;;;;;;;2.80;1.90;;;19.80;84.60;;;;;;5032810;28;20598;-77
2021/10/24 10:24:35;;;;;;;3.63;1.80;;;19.60;83.40;;;;;;5017332;28;20586;-76
2021/10/24 10:27:36;;;;;;;2.10;1.20;;;19.50;79.60;;;;;;5024804;28;20580;-78
2021/10/24 10:30:31;;;;;;;3.80;2.20;;;19.50;79.20;;;;;;5032046;28;20600;-77
2021/10/24 10:32:57;;;;;;;3.83;1.70;;;19.20;79.90;;;;;;5030359;28;20588;-78
2021/10/24 10:35:27;;;;;;;3.23;1.50;;;19.20;82.60;;;;;;5030381;28;20568;-78
2021/10/24 10:38:03;;;;;;;1.93;1.50;;;19.20;85.10;;;;;;5030581;28;20585;-76
2021/10/24 10:40:37;;;;;;;4.73;1.93;;;19.00;79.20;;;;;;5014046;28;20639;-77
2021/10/24 10:43:11;;;;;;;2.50;0.97;;;19.00;81.40;;;;;;5012758;28;20664;-77
2021/10/24 10:45:56;;;;;;;5.53;2.97;;;19.10;84.50;;;;;;5014440;28;20642;-78
2021/10/24 10:48:29;;;;;;;2.90;1.37;;;19.20;80.90;;;;;;5030502;28;20897;-77
2021/10/24 10:51:15;;;;;;;3.67;1.87;;;19.40;84.70;;;;;;5032011;28;20632;-78
2021/10/24 10:53:46;;;;;;;2.70;1.40;;;19.40;82.70;;;;;;5031773;28;21143;-78
2021/10/24 10:56:12;;;;;;;2.40;1.20;;;19.40;81.60;;;;;;5030969;28;20588;-77
2021/10/24 10:58:43;;;;;;;2.60;1.30;;;19.50;84.60;;;;;;5014446;28;20629;-78
2021/10/24 11:01:28;;;;;;;2.43;1.30;;;19.70;85.00;;;;;;5032920;28;20177;-79
2021/10/24 11:04:00;;;;;;;4.33;1.43;;;19.70;84.00;;;;;;5032118;28;20564;-77
2021/10/24 11:06:26;;;;;;;4.30;2.40;;;19.80;81.70;;;;;;5031978;28;20569;-77
2021/10/24 11:08:57;;;;;;;3.10;1.10;;;19.80;81.90;;;;;;5030018;28;21245;-77
2021/10/24 11:11:40;;;;;;;2.50;2.07;;;20.00;83.50;;;;;;5031740;28;20193;-78
2021/10/24 11:14:15;;;;;;;2.07;1.13;;;19.90;80.20;;;;;;5031403;28;20649;-77
2021/10/24 11:16:44;;;;;;;2.13;1.00;;;19.80;79.60;;;;;;5032574;28;20567;-77
2021/10/24 11:19:36;;;;;;;2.23;1.00;;;19.80;81.30;;;;;;5014652;28;20604;-78
2021/10/24 11:22:20;;;;;;;2.20;1.50;;;19.70;80.10;;;;;;4998703;28;21163;-78
2021/10/24 11:24:47;;;;;;;2.37;0.90;;;19.60;79.30;;;;;;5014689;28;20576;-76
2021/10/24 11:27:28;;;;;;;2.23;1.07;;;19.40;80.40;;;;;;5035810;28;20561;-77
2021/10/24 11:29:59;;;;;;;2.10;1.20;;;19.10;77.50;;;;;;5014731;28;20670;-76
2021/10/24 11:32:34;;;;;;;3.03;1.70;;;18.80;78.40;;;;;;5030865;28;21244;-77
2021/10/24 11:35:09;;;;;;;2.00;1.20;;;18.40;78.40;;;;;;5030590;28;20598;-78
2021/10/24 11:37:48;;;;;;;2.63;1.40;;;18.10;79.20;;;;;;5033419;28;20579;-78
2021/10/24 11:40:26;;;;;;;2.73;1.30;;;17.80;78.90;;;;;;5030313;28;20628;-78
2021/10/24 11:43:14;;;;;;;3.30;1.20;;;17.60;79.90;;;;;;5031335;28;20572;-78
2021/10/24 11:45:53;;;;;;;3.30;1.50;;;17.30;80.20;;;;;;5030410;28;20654;-77
2021/10/24 11:48:21;;;;;;;2.57;1.53;;;17.10;80.20;;;;;;5033422;28;20569;-77
2021/10/24 11:50:55;;;;;;;5.47;1.87;;;17.00;81.30;;;;;;5010261;28;20690;-76
2021/10/24 11:53:47;;;;;;;2.37;1.33;;;16.70;81.30;;;;;;5016249;28;20592;-76
2021/10/24 11:56:18;;;;;;;3.83;1.40;;;16.40;81.40;;;;;;5013431;28;20589;-76
2021/10/24 11:59:05;;;;;;;4.30;1.80;;;16.40;82.80;;;;;;5015916;28;20589;-75
2021/10/24 12:01:33;;;;;;;2.53;1.20;;;16.30;83.00;;;;;;5031456;28;20601;-76
2021/10/24 12:04:17;;;;;;;5.30;1.20;;;16.20;84.40;;;;;;5036096;28;20599;-77
2021/10/24 12:06:48;;;;;;;3.77;1.53;;;16.10;84.40;;;;;;5035416;28;20564;-77
2021/10/24 12:09:24;;;;;;;2.47;1.50;;;15.90;85.20;;;;;;5037447;28;20718;-77
2021/10/24 12:11:50;;;;;;;4.50;1.47;;;16.00;86.30;;;;;;5033459;28;20629;-77
2021/10/24 12:14:16;;;;;;;2.33;1.50;;;15.90;87.00;;;;;;5035541;28;20659;-78
2021/10/24 12:16:47;;;;;;;2.43;1.40;;;16.00;87.40;;;;;;5033749;28;20630;-76
2021/10/24 12:19:30;;;;;;;4.10;2.43;;;15.90;87.50;;;;;;5034478;28;20208;-76
2021/10/24 12:22:03;;;;;;;4.13;1.60;;;15.90;87.80;;;;;;5035048;28;20573;-77
2021/10/24 12:24:40;;;;;;;3.53;1.10;;;15.90;88.60;;;;;;5035345;28;20584;-77
2021/10/24 12:27:09;;;;;;;3.30;1.47;;;15.90;88.80;;;;;;5035419;28;20575;-76
2021/10/24 12:29:35;;;;;;;2.83;1.90;;;15.90;89.50;;;;;;5025313;28;20692;-76
2021/10/24 12:32:12;;;;;;;4.60;1.30;;;15.90;89.70;;;;;;5015841;28;20616;-76
2021/10/24 12:35:13;;;;;;;4.50;1.77;;;15.90;90.00;;;;;;5030064;28;20580;-76
2021/10/24 12:37:39;;;;;;;3.40;2.83;;;16.00;90.20;;;;;;5033278;28;20592;-76
2021/10/24 12:40:37;;;;;;;3.70;2.20;;;16.00;90.20;;;;;;5052050;22;20667;-74
2021/10/24 12:43:11;;;;;;;4.13;2.30;;;15.90;90.40;;;;;;4984226;28;20597;-75
2021/10/24 12:45:55;;;;;;;3.70;2.40;;;15.90;90.80;;;;;;5041275;28;20596;-75
2021/10/24 12:48:45;;;;;;;4.60;2.03;;;15.90;90.90;;;;;;5044625;28;20584;-74
2021/10/24 12:51:23;;;;;;;3.47;2.77;;;15.90;90.50;;;;;;5038806;28;20667;-75
2021/10/24 12:53:49;;;;;;;4.23;2.10;;;15.90;90.80;;;;;;5027844;28;20627;-76
2021/10/24 12:56:15;;;;;;;3.37;2.13;;;15.90;91.10;;;;;;5041278;28;20616;-75
2021/10/24 12:58:41;;;;;;;3.20;1.70;;;15.90;91.20;;;;;;5039570;28;20581;-75
2021/10/24 13:01:06;;;;;;;3.53;1.53;;;15.90;91.10;;;;;;5041357;28;20194;-75
2021/10/24 13:03:32;;;;;;;2.73;1.80;;;15.90;91.40;;;;;;5030399;28;20233;-75
2021/10/24 13:05:58;;;;;;;6.17;3.30;;;15.90;91.40;;;;;;5035464;28;20625;-75
2021/10/24 13:08:24;;;;;;;4.53;1.80;;;15.90;91.30;;;;;;5024324;28;20608;-75
2021/10/24 13:10:52;;;;;;;4.23;3.27;;;15.90;91.50;;;;;;5037274;28;20840;-75
2021/10/24 13:13:18;;;;;;;4.17;2.10;;;15.90;91.40;;;;;;5030290;28;20608;-75